Impacts METAR Board
IDs:

KMAI - Marianna Muni, FL, US

Updated at: 2000 UTC 02 Oct 2022
Potential Impact None Slight Moderate High
Time 02/08Z 02/09Z 02/10Z 02/11Z 02/12Z 02/13Z 02/14Z 02/15Z 02/16Z 02/17Z 02/18Z 02/19Z 02/20Z
Temp54 53 53 52 53 59 69 75 79 82 85 86 87
Dewpt48 49 48 48 48 52 53 50 48 48 48 47 44
Altim29.94 29.94 29.96 29.97 29.98 29.99 30.00 30.00 29.99 29.97 29.95 29.92 29.90
VIS10 10 10 10 10 10 10 10 10 10 10 10 10
CIG-- -- -- -- -- -- -- -- -- -- -- -- --
CoverCLRCLRCLRCLRCLRCLRCLRCLRCLRCLRCLRCLRCLR
FltCatVFRVFRVFRVFRVFRVFRVFRVFRVFRVFRVFRVFRVFR
WX--------------------------
WDir024000030035010330300320330320
WSpd0 3 0 0 0 3 6 9 7 12 9 11 18
WGst-- -- -- -- -- -- -- -- -- 17 18 -- 21
Raw hourly METARs
KMAI 020753Z AUTO 00000KT 10SM CLR 12/09 A2994 RMK AO1 SLP138 T01220089
KMAI 020853Z AUTO 24003KT 10SM CLR 12/09 A2994 RMK AO1 SLP137 T01170094 58001
KMAI 020953Z AUTO 00000KT 10SM CLR 12/09 A2996 RMK AO1 SLP142 T01170089
KMAI 021053Z AUTO 00000KT 10SM CLR 11/09 A2997 RMK AO1 SLP147 T01110089
KMAI 021153Z AUTO 00000KT 10SM CLR 12/09 A2998 RMK AO1 SLP150 T01170089 10144 20106 51013
KMAI 021253Z AUTO 30003KT 10SM CLR 15/11 A2999 RMK AO1 SLP153 T01500111
KMAI 021353Z AUTO 35006KT 10SM CLR 21/12 A3000 RMK AO1 SLP158 T02060117
KMAI 021453Z AUTO 01009KT 10SM CLR 24/10 A3000 RMK AO1 SLP157 T02390100 50007
KMAI 021553Z AUTO 33007KT 10SM CLR 26/09 A2999 RMK AO1 SLP154 T02610089
KMAI 021653Z AUTO 30012G17KT 10SM CLR 28/09 A2997 RMK AO1 SLP148 T02780089
KMAI 021753Z AUTO 32009G18KT 10SM CLR 29/09 A2995 RMK AO1 SLP139 T02940089 10294 20117 58018
KMAI 021853Z AUTO 33011KT 10SM CLR 30/08 A2992 RMK AO1 SLP130 T03000083
KMAI 021953Z AUTO 32018G21KT 10SM CLR 31/07 A2990 RMK AO1 SLP125 T03060067



Page loaded:  20:39 UTC  |   01:39 PM Pacific  |   02:39 PM Mountain  |   03:39 PM Central  |   04:39 PM Eastern

 

ADVISORIES

FORECASTS

FORECASTS

OBSERVATIONS

USER TOOLS

ABOUT US